Time;durP1;ratioP1;P1;durP2;ratioP2;P2;SDS_P1;SDS_P2;PMS_P1;PMS_P2;Temp;Humidity;BMP_temperature;BMP_pressure;BME280_temperature;BME280_humidity;BME280_pressure;Samples;Min_cycle;Max_cycle;Signal;HPM_P1;HPM_P2
2022/11/28 00:01:28;;;;;;;12.23;10.33;;;;;;;9.41;52.57;97302.19;5016336;28;20650;-69
2022/11/28 00:03:53;;;;;;;11.90;9.87;;;;;;;9.43;52.30;97292.41;5034013;28;20447;-68
2022/11/28 00:06:19;;;;;;;15.77;10.43;;;;;;;9.51;52.11;97297.75;5030503;28;20810;-69
2022/11/28 00:08:44;;;;;;;13.70;9.37;;;;;;;9.45;52.53;97295.72;5033074;28;20188;-68
2022/11/28 00:11:12;;;;;;;16.77;10.30;;;;;;;9.27;52.95;97301.69;5032641;28;20226;-69
2022/11/28 00:13:38;;;;;;;13.00;9.93;;;;;;;9.41;53.45;97299.56;5034128;28;20214;-69
2022/11/28 00:16:05;;;;;;;14.53;10.50;;;;;;;9.37;53.31;97305.09;5029563;28;20425;-69
2022/11/28 00:18:31;;;;;;;13.97;10.30;;;;;;;9.35;53.24;97304.41;5031168;28;20671;-69
2022/11/28 00:21:11;;;;;;;12.67;9.67;;;;;;;9.30;53.28;97300.56;5030645;28;20450;-69
2022/11/28 00:23:38;;;;;;;13.60;10.73;;;;;;;9.21;54.22;97297.00;5025914;28;20202;-69
2022/11/28 00:26:06;;;;;;;13.30;10.20;;;;;;;9.34;53.61;97289.66;5029926;28;20421;-69
2022/11/28 00:28:32;;;;;;;16.90;10.53;;;;;;;9.38;53.69;97283.19;5028659;28;20426;-69
2022/11/28 00:30:57;;;;;;;16.40;10.93;;;;;;;9.37;53.29;97281.53;5033066;28;21034;-70
2022/11/28 00:33:23;;;;;;;16.87;10.53;;;;;;;9.34;53.45;97279.19;5024830;28;20242;-70
2022/11/28 00:35:48;;;;;;;14.30;10.00;;;;;;;9.40;53.76;97274.38;5019502;28;20554;-70
2022/11/28 00:38:14;;;;;;;12.13;9.93;;;;;;;9.45;53.50;97278.22;5050161;28;20184;-69
2022/11/28 00:40:39;;;;;;;15.17;10.53;;;;;;;9.42;53.35;97285.53;5032187;28;20603;-70
2022/11/28 00:43:05;;;;;;;15.07;10.20;;;;;;;9.18;54.60;97281.63;5022957;28;20295;-69
2022/11/28 00:45:31;;;;;;;14.10;10.20;;;;;;;9.30;54.17;97274.41;5018529;28;20207;-68
2022/11/28 00:47:56;;;;;;;15.77;9.93;;;;;;;9.32;53.93;97275.09;5029831;28;20184;-69
2022/11/28 00:50:21;;;;;;;13.20;10.00;;;;;;;9.29;54.47;97270.97;5025483;28;20777;-70
2022/11/28 00:52:47;;;;;;;12.63;10.10;;;;;;;9.32;54.19;97262.84;5035439;28;20219;-69
2022/11/28 00:55:13;;;;;;;12.43;10.23;;;;;;;9.37;54.50;97276.31;5027169;28;20194;-70
2022/11/28 00:57:38;;;;;;;14.60;10.30;;;;;;;9.38;53.68;97262.28;5034498;28;20424;-69
2022/11/28 01:00:06;;;;;;;11.77;9.30;;;;;;;9.19;53.62;97257.94;5003541;28;20267;-68
2022/11/28 01:02:31;;;;;;;16.00;10.03;;;;;;;9.29;54.75;97255.28;5024740;28;20232;-70
2022/11/28 01:04:57;;;;;;;11.97;9.70;;;;;;;9.38;53.92;97257.03;5019357;28;21012;-71
2022/11/28 01:07:22;;;;;;;11.70;9.50;;;;;;;9.46;53.12;97252.88;5027860;28;20194;-68
2022/11/28 01:09:48;;;;;;;11.80;9.60;;;;;;;9.50;53.32;97243.78;5025634;28;20203;-70
2022/11/28 01:12:13;;;;;;;12.10;9.57;;;;;;;9.45;54.29;97246.00;5041629;28;20179;-69
2022/11/28 01:14:39;;;;;;;11.80;9.70;;;;;;;9.53;54.23;97235.63;5030934;28;20295;-69
2022/11/28 01:17:04;;;;;;;14.63;8.87;;;;;;;9.56;54.60;97237.13;5037027;28;20212;-69
2022/11/28 01:19:29;;;;;;;14.07;10.20;;;;;;;9.58;54.26;97236.00;5032041;28;20552;-69
2022/11/28 01:21:55;;;;;;;12.47;9.90;;;;;;;9.59;54.37;97235.03;5026564;28;20187;-69
2022/11/28 01:24:20;;;;;;;15.77;9.97;;;;;;;9.60;54.44;97239.31;5015548;28;20211;-69
2022/11/28 01:26:46;;;;;;;12.97;9.70;;;;;;;9.49;54.70;97236.88;5024971;28;20239;-68
2022/11/28 01:29:11;;;;;;;14.77;9.83;;;;;;;9.48;55.01;97235.25;5036263;28;20183;-70
2022/11/28 01:31:37;;;;;;;13.93;9.53;;;;;;;9.42;54.86;97231.41;5027736;28;20267;-69
2022/11/28 01:34:03;;;;;;;13.13;9.83;;;;;;;9.37;55.50;97234.47;5034066;28;20313;-69
2022/11/28 01:36:29;;;;;;;16.90;10.13;;;;;;;9.41;54.98;97235.00;5028914;28;20186;-70
2022/11/28 01:38:54;;;;;;;13.10;9.97;;;;;;;9.47;55.09;97244.88;5029136;28;20210;-70
2022/11/28 01:41:22;;;;;;;11.37;8.73;;;;;;;9.53;55.27;97239.06;5031215;28;20187;-69
2022/11/28 01:44:03;;;;;;;13.43;8.70;;;;;;;9.55;55.04;97241.56;5022698;28;20675;-70
2022/11/28 01:46:29;;;;;;;12.27;9.27;;;;;;;9.54;55.04;97245.13;5030525;28;20421;-69
2022/11/28 01:49:06;;;;;;;21.83;10.07;;;;;;;9.56;55.19;97248.44;5021413;28;20419;-69
2022/11/28 01:51:32;;;;;;;13.90;9.13;;;;;;;9.50;55.05;97243.78;5008784;28;20922;-70
2022/11/28 01:53:58;;;;;;;11.93;9.00;;;;;;;9.56;54.91;97229.28;5025135;28;20482;-68
2022/11/28 01:56:26;;;;;;;11.53;8.37;;;;;;;9.34;55.43;97228.69;5029297;28;20430;-69
2022/11/28 01:58:57;;;;;;;12.00;9.63;;;;;;;9.26;56.31;97229.41;5030435;28;20192;-69
2022/11/28 02:01:24;;;;;;;12.47;9.77;;;;;;;9.35;55.77;97246.03;5016468;28;20427;-70
2022/11/28 02:03:50;;;;;;;13.93;9.67;;;;;;;9.43;55.64;97237.47;5028253;28;20536;-69
2022/11/28 02:06:19;;;;;;;10.50;8.53;;;;;;;9.34;55.96;97229.50;5019556;28;20526;-69
2022/11/28 02:08:45;;;;;;;11.87;8.60;;;;;;;9.26;55.67;97226.78;5033510;28;20426;-69
2022/11/28 02:11:43;;;;;;;12.27;9.20;;;;;;;9.20;56.17;97222.13;5038595;28;20461;-67
2022/11/28 02:14:34;;;;;;;11.33;9.17;;;;;;;9.25;56.19;97214.69;5024485;28;20207;-69
2022/11/28 02:17:35;;;;;;;11.43;8.53;;;;;;;9.11;55.35;97208.16;5043738;28;20471;-69
2022/11/28 02:20:23;;;;;;;11.57;9.00;;;;;;;9.21;55.06;97198.47;5029305;28;20411;-69
2022/11/28 02:23:13;;;;;;;11.03;8.70;;;;;;;9.30;55.18;97191.56;5035369;28;20418;-69
2022/11/28 02:26:02;;;;;;;9.70;8.27;;;;;;;9.37;54.57;97195.22;5023251;28;20409;-68
2022/11/28 02:28:36;;;;;;;11.63;8.63;;;;;;;9.40;54.28;97191.50;5029535;28;20425;-68
2022/11/28 02:31:23;;;;;;;10.60;8.47;;;;;;;9.44;54.35;97181.59;5032392;28;20831;-67
2022/11/28 02:33:54;;;;;;;11.87;9.67;;;;;;;9.40;53.72;97180.22;5030456;28;20829;-70
2022/11/28 02:36:32;;;;;;;13.97;9.30;;;;;;;9.21;54.20;97176.72;5028947;28;20431;-67
2022/11/28 02:39:29;;;;;;;12.90;10.10;;;;;;;9.12;54.13;97161.88;5022617;28;20441;-71
2022/11/28 02:42:22;;;;;;;13.50;9.03;;;;;;;9.12;54.26;97159.28;5029363;28;20458;-70
2022/11/28 02:45:01;;;;;;;11.17;9.27;;;;;;;9.14;54.65;97176.47;5014649;28;20435;-70
2022/11/28 02:47:41;;;;;;;12.00;9.27;;;;;;;9.20;54.91;97167.22;5038013;28;20456;-68
2022/11/28 02:50:19;;;;;;;11.60;9.10;;;;;;;9.23;54.29;97166.94;5016007;28;20516;-69
2022/11/28 02:52:49;;;;;;;11.33;9.17;;;;;;;9.17;54.42;97170.13;5034583;28;21016;-68
2022/11/28 02:55:15;;;;;;;13.43;9.57;;;;;;;9.19;54.12;97161.16;5046906;28;20427;-68
2022/11/28 02:57:46;;;;;;;12.33;9.80;;;;;;;9.28;53.80;97158.66;5038264;28;20422;-67
2022/11/28 03:00:24;;;;;;;13.77;9.50;;;;;;;9.30;53.99;97165.41;5049082;28;20423;-67
2022/11/28 03:03:13;;;;;;;14.40;9.00;;;;;;;9.37;53.98;97149.94;5025522;28;20890;-70
2022/11/28 03:05:47;;;;;;;13.03;8.40;;;;;;;9.27;53.87;97139.53;5014449;28;20424;-70
2022/11/28 03:08:44;;;;;;;11.97;8.57;;;;;;;9.23;54.11;97138.16;5033707;28;20419;-71
2022/11/28 03:11:31;;;;;;;11.37;9.10;;;;;;;9.35;54.10;97138.81;5046438;28;20464;-69
2022/11/28 03:14:05;;;;;;;15.73;9.60;;;;;;;9.43;53.68;97138.06;5023295;28;20484;-70
2022/11/28 03:17:01;;;;;;;14.53;10.57;;;;;;;9.44;54.01;97144.97;5040783;28;20471;-67
2022/11/28 03:19:31;;;;;;;11.90;9.00;;;;;;;9.32;54.40;97132.09;5018103;28;20920;-67
2022/11/28 03:22:06;;;;;;;13.50;9.47;;;;;;;9.27;54.35;97131.69;5032290;28;20536;-69
2022/11/28 03:24:42;;;;;;;14.17;9.90;;;;;;;9.27;54.52;97129.06;5017745;28;20967;-68
2022/11/28 03:27:18;;;;;;;14.43;9.70;;;;;;;9.21;54.90;97140.94;5037539;28;20410;-69
2022/11/28 03:29:56;;;;;;;13.13;9.83;;;;;;;9.17;54.67;97136.97;5038726;28;20481;-70
2022/11/28 03:32:24;;;;;;;17.57;9.30;;;;;;;9.12;54.84;97140.97;5027684;28;20989;-69
2022/11/28 03:34:52;;;;;;;12.77;9.77;;;;;;;9.17;54.17;97150.03;5036208;28;20465;-69
2022/11/28 03:37:23;;;;;;;20.27;11.30;;;;;;;9.18;53.95;97132.56;5033658;28;20454;-71
2022/11/28 03:39:53;;;;;;;12.83;10.03;;;;;;;9.11;54.89;97129.72;5030787;28;20960;-70
2022/11/28 03:42:21;;;;;;;15.77;9.77;;;;;;;9.09;54.67;97123.78;5031786;28;20423;-67
2022/11/28 03:44:59;;;;;;;14.77;9.30;;;;;;;9.15;55.35;97138.06;5036981;28;20438;-70
2022/11/28 03:47:29;;;;;;;22.23;10.13;;;;;;;9.07;55.00;97129.16;5041654;28;20436;-69
2022/11/28 03:49:56;;;;;;;12.60;9.83;;;;;;;9.06;55.02;97122.31;5036900;28;20457;-68
2022/11/28 03:52:35;;;;;;;12.67;9.97;;;;;;;9.05;55.08;97114.59;5022046;28;20432;-69
2022/11/28 03:55:04;;;;;;;12.13;9.73;;;;;;;9.01;55.40;97116.66;5053864;28;20429;-70
2022/11/28 03:58:00;;;;;;;11.40;8.63;;;;;;;9.04;55.24;97116.38;5035563;28;20429;-68
2022/11/28 04:00:26;;;;;;;17.27;10.77;;;;;;;8.90;55.53;97109.81;5033813;28;20417;-69
2022/11/28 04:03:10;;;;;;;10.87;9.20;;;;;;;8.98;55.12;97098.66;5031234;28;20430;-69
2022/11/28 04:05:47;;;;;;;11.00;8.53;;;;;;;9.05;55.82;97115.41;5031684;28;20206;-69
2022/11/28 04:08:24;;;;;;;13.37;9.30;;;;;;;9.12;55.46;97104.38;5023186;28;20454;-70
2022/11/28 04:11:13;;;;;;;17.03;9.20;;;;;;;9.19;54.84;97100.22;5032092;28;20865;-70
2022/11/28 04:14:03;;;;;;;12.23;9.70;;;;;;;9.15;55.35;97112.75;5026279;28;20443;-70
2022/11/28 04:16:41;;;;;;;12.43;9.30;;;;;;;9.20;54.84;97125.38;5013802;28;20406;-68
2022/11/28 04:19:18;;;;;;;12.90;9.37;;;;;;;9.19;54.88;97123.75;5038844;28;20521;-68
2022/11/28 04:21:45;;;;;;;14.30;9.63;;;;;;;9.14;54.86;97108.47;5026849;28;20561;-69
2022/11/28 04:24:16;;;;;;;12.37;8.70;;;;;;;9.13;55.11;97116.47;5035103;28;20442;-69
2022/11/28 04:26:54;;;;;;;12.10;9.10;;;;;;;9.13;55.05;97111.25;5036688;28;20421;-69
2022/11/28 04:29:22;;;;;;;12.87;9.33;;;;;;;9.17;54.95;97112.63;5034088;28;20460;-71
2022/11/28 04:31:49;;;;;;;12.00;8.97;;;;;;;9.22;54.92;97118.22;5014507;28;20468;-69
2022/11/28 04:34:17;;;;;;;13.20;9.20;;;;;;;9.21;54.90;97109.56;5022965;28;20545;-69
2022/11/28 04:36:44;;;;;;;13.13;8.50;;;;;;;9.29;55.04;97108.00;5055199;28;20497;-70
2022/11/28 04:39:21;;;;;;;13.50;8.80;;;;;;;9.25;55.39;97107.47;5029528;28;20439;-70
2022/11/28 04:42:10;;;;;;;9.80;8.20;;;;;;;9.21;55.28;97098.25;5044682;28;20427;-70
2022/11/28 04:44:46;;;;;;;10.27;8.33;;;;;;;9.23;55.28;97098.94;5024504;28;21053;-69
2022/11/28 04:47:11;;;;;;;10.37;8.47;;;;;;;9.22;55.49;97097.28;5010225;28;20461;-67
2022/11/28 04:49:37;;;;;;;13.30;9.30;;;;;;;9.28;55.51;97098.50;5015362;28;20505;-71
2022/11/28 04:52:07;;;;;;;14.67;9.10;;;;;;;9.29;55.50;97100.97;5026328;28;20207;-69
2022/11/28 04:54:47;;;;;;;9.77;8.53;;;;;;;9.30;55.55;97093.94;5017984;28;20211;-69
2022/11/28 04:57:20;;;;;;;10.30;8.20;;;;;;;9.34;55.51;97095.31;5028536;28;20957;-69
2022/11/28 04:59:46;;;;;;;10.03;8.20;;;;;;;9.35;55.80;97092.53;5030269;28;20426;-69
2022/11/28 05:02:13;;;;;;;11.57;7.43;;;;;;;9.44;54.31;97092.63;5030741;28;21006;-69
2022/11/28 05:04:39;;;;;;;9.53;6.90;;;;;;;9.49;53.71;97090.38;5028177;28;20830;-69
2022/11/28 05:07:06;;;;;;;10.40;6.80;;;;;;;9.52;53.49;97095.31;5037786;28;20427;-67
2022/11/28 05:09:33;;;;;;;9.47;7.43;;;;;;;9.47;53.28;97103.63;5039233;28;20175;-68
2022/11/28 05:11:58;;;;;;;9.77;7.03;;;;;;;9.41;53.53;97103.38;5025364;28;20453;-69
2022/11/28 05:14:23;;;;;;;12.40;7.20;;;;;;;9.28;53.55;97099.34;5043597;28;20472;-69
2022/11/28 05:16:49;;;;;;;8.30;6.70;;;;;;;9.24;53.12;97107.63;5051055;28;20191;-68
2022/11/28 05:19:15;;;;;;;11.30;7.37;;;;;;;9.01;54.08;97100.97;5041960;28;20199;-69
2022/11/28 05:21:40;;;;;;;14.03;7.27;;;;;;;9.08;54.42;97098.63;5038635;28;20653;-70
2022/11/28 05:24:07;;;;;;;9.57;7.10;;;;;;;9.10;54.22;97101.06;5049209;28;20635;-69
2022/11/28 05:26:34;;;;;;;9.30;6.40;;;;;;;9.18;53.94;97104.59;5011309;28;20186;-70
2022/11/28 05:29:00;;;;;;;12.60;7.37;;;;;;;9.19;54.09;97111.50;5042309;28;20940;-69
2022/11/28 05:31:26;;;;;;;13.40;7.00;;;;;;;9.25;53.90;97120.53;5033435;28;20536;-69
2022/11/28 05:33:53;;;;;;;10.30;7.33;;;;;;;9.27;53.53;97118.59;5045643;28;20549;-69
2022/11/28 05:36:18;;;;;;;9.30;6.87;;;;;;;9.31;53.05;97119.97;5045438;28;20432;-69
2022/11/28 05:38:44;;;;;;;6.90;6.10;;;;;;;9.29;53.26;97114.06;5041998;28;20873;-69
2022/11/28 05:41:17;;;;;;;8.33;6.70;;;;;;;9.31;53.55;97119.97;5030071;28;20183;-69
2022/11/28 05:43:43;;;;;;;9.60;7.13;;;;;;;9.31;53.19;97122.59;5035334;28;20199;-69
2022/11/28 05:46:08;;;;;;;9.47;6.90;;;;;;;9.17;53.80;97117.84;5049808;28;20530;-68
2022/11/28 05:48:34;;;;;;;8.20;6.60;;;;;;;9.22;53.27;97116.44;5041197;28;20185;-70
2022/11/28 05:50:59;;;;;;;10.27;7.00;;;;;;;9.10;53.57;97122.00;5041105;28;20206;-69
2022/11/28 05:53:25;;;;;;;9.80;6.83;;;;;;;9.20;53.54;97112.28;5044366;28;20551;-70
2022/11/28 05:55:50;;;;;;;8.47;6.70;;;;;;;9.20;53.35;97112.28;5044996;28;20179;-68
2022/11/28 05:58:16;;;;;;;10.40;7.30;;;;;;;9.18;53.36;97109.03;5042756;28;20564;-70
2022/11/28 06:00:41;;;;;;;8.40;6.47;;;;;;;9.17;53.88;97113.41;5033927;28;20179;-70
2022/11/28 06:03:07;;;;;;;10.07;7.20;;;;;;;9.29;53.51;97116.69;5050051;28;20277;-69
2022/11/28 06:05:32;;;;;;;12.33;8.40;;;;;;;9.41;54.03;97113.84;5034851;28;20191;-67
2022/11/28 06:07:58;;;;;;;9.53;7.50;;;;;;;9.47;53.69;97115.88;5031098;28;20180;-70
2022/11/28 06:10:23;;;;;;;9.90;7.20;;;;;;;9.47;53.28;97111.47;5029204;28;20322;-71
2022/11/28 06:12:49;;;;;;;9.53;7.53;;;;;;;9.49;53.19;97113.94;5037791;28;20692;-69
2022/11/28 06:15:14;;;;;;;10.83;6.70;;;;;;;9.47;52.91;97113.25;5046470;28;20187;-69
2022/11/28 06:17:40;;;;;;;9.73;6.53;;;;;;;9.46;52.90;97119.44;5032299;28;20179;-68
2022/11/28 06:20:06;;;;;;;8.43;6.77;;;;;;;9.50;53.19;97116.41;5032560;28;20664;-68
2022/11/28 06:22:32;;;;;;;12.87;7.20;;;;;;;9.58;53.19;97120.88;5050829;28;20171;-71
2022/11/28 06:24:58;;;;;;;8.97;6.73;;;;;;;9.65;52.75;97116.72;5022511;28;20792;-70
2022/11/28 06:27:23;;;;;;;10.63;6.83;;;;;;;9.67;52.43;97114.78;5041804;28;20580;-70
2022/11/28 06:29:49;;;;;;;8.50;6.63;;;;;;;9.64;52.78;97109.84;5043122;28;20208;-70
2022/11/28 06:32:14;;;;;;;8.60;6.57;;;;;;;9.66;53.15;97115.75;5031974;28;20324;-69
2022/11/28 06:34:39;;;;;;;8.37;6.97;;;;;;;9.70;52.93;97118.88;5028962;28;20277;-69
2022/11/28 06:37:05;;;;;;;12.73;7.10;;;;;;;9.65;52.42;97116.72;5023316;28;20559;-70
2022/11/28 06:39:31;;;;;;;11.90;6.63;;;;;;;9.75;52.45;97116.66;5028263;28;20187;-69
2022/11/28 06:41:56;;;;;;;9.40;6.40;;;;;;;9.76;52.32;97112.22;5024525;28;20180;-69
2022/11/28 06:44:22;;;;;;;9.37;6.67;;;;;;;9.76;52.40;97112.22;5047340;28;20297;-69
2022/11/28 06:46:47;;;;;;;9.23;6.90;;;;;;;9.78;52.67;97107.69;5026460;28;20256;-70
2022/11/28 06:49:13;;;;;;;12.50;9.30;;;;;;;9.75;52.97;97115.81;5023200;28;20204;-69
2022/11/28 06:51:39;;;;;;;17.20;12.10;;;;;;;9.75;53.24;97110.59;5036225;28;20675;-69
2022/11/28 06:54:05;;;;;;;14.37;11.47;;;;;;;9.68;53.72;97111.19;5002732;28;20207;-68
2022/11/28 06:56:31;;;;;;;12.43;8.70;;;;;;;9.68;54.14;97113.81;5031348;28;20481;-69
2022/11/28 06:58:57;;;;;;;13.10;8.50;;;;;;;9.70;54.43;97111.03;5028629;28;20454;-70
2022/11/28 07:01:24;;;;;;;14.23;10.27;;;;;;;9.72;54.21;97116.94;5025196;28;20185;-69
2022/11/28 07:03:50;;;;;;;13.50;9.57;;;;;;;9.75;54.05;97118.44;5007034;28;21052;-69
2022/11/28 07:06:18;;;;;;;13.50;9.77;;;;;;;9.74;54.89;97119.41;5012610;28;20527;-70
2022/11/28 07:08:43;;;;;;;18.90;9.20;;;;;;;9.78;55.00;97120.75;5019695;28;20435;-68
2022/11/28 07:11:23;;;;;;;14.37;10.70;;;;;;;9.80;54.56;97124.88;5019871;28;20462;-69
2022/11/28 07:13:49;;;;;;;15.40;10.80;;;;;;;9.82;54.75;97122.94;5015741;28;20220;-70
2022/11/28 07:16:25;;;;;;;16.17;11.07;;;;;;;9.84;54.91;97128.00;5017807;28;20788;-68
2022/11/28 07:18:51;;;;;;;15.53;11.10;;;;;;;9.88;54.86;97128.56;5001060;28;20447;-69
2022/11/28 07:21:17;;;;;;;14.00;9.70;;;;;;;9.87;54.57;97130.34;5025357;28;20478;-68
2022/11/28 07:23:43;;;;;;;9.80;7.70;;;;;;;9.86;53.95;97128.69;5017910;28;20438;-70
2022/11/28 07:26:11;;;;;;;13.67;6.10;;;;;;;9.87;53.21;97129.53;5024241;28;20442;-68
2022/11/28 07:28:37;;;;;;;11.40;6.43;;;;;;;9.88;53.36;97144.25;5000987;28;20180;-70
2022/11/28 07:31:09;;;;;;;8.50;5.93;;;;;;;9.82;52.59;97149.09;5020504;28;20538;-68
2022/11/28 07:33:35;;;;;;;10.20;5.60;;;;;;;9.86;52.98;97143.56;5017809;28;20220;-68
2022/11/28 07:36:02;;;;;;;19.43;5.93;;;;;;;9.87;51.01;97140.81;5024505;28;20419;-70
2022/11/28 07:38:27;;;;;;;6.63;5.77;;;;;;;9.83;51.21;97132.44;5037816;28;20495;-70
2022/11/28 07:40:52;;;;;;;12.27;5.70;;;;;;;9.81;51.38;97129.13;5033785;28;20418;-68
2022/11/28 07:43:18;;;;;;;10.17;6.23;;;;;;;9.85;51.16;97127.03;5023555;28;20291;-70
2022/11/28 07:45:43;;;;;;;6.77;5.27;;;;;;;9.88;50.95;97121.50;5029445;28;20389;-71
2022/11/28 07:48:09;;;;;;;7.73;5.30;;;;;;;9.99;50.13;97126.50;5012018;28;20192;-71
2022/11/28 07:50:37;;;;;;;11.73;7.20;;;;;;;10.02;50.44;97137.66;5019037;28;20295;-70
2022/11/28 07:53:02;;;;;;;23.80;13.20;;;;;;;10.08;51.22;97135.25;5009920;28;20196;-69
2022/11/28 07:55:28;;;;;;;18.50;10.87;;;;;;;10.11;52.27;97129.72;5012303;28;20874;-70
2022/11/28 07:57:53;;;;;;;20.30;10.97;;;;;;;10.15;53.28;97138.09;5020092;28;20240;-70
2022/11/28 08:00:19;;;;;;;13.47;9.57;;;;;;;10.18;53.65;97131.72;5014783;28;20176;-70
2022/11/28 08:02:45;;;;;;;13.80;7.47;;;;;;;10.15;52.32;97138.09;5015452;28;20191;-69
2022/11/28 08:05:11;;;;;;;13.40;6.40;;;;;;;10.16;51.84;97145.00;5016892;28;20477;-70
2022/11/28 08:07:37;;;;;;;13.93;5.60;;;;;;;10.16;51.22;97145.00;5029129;28;20722;-70
2022/11/28 08:10:03;;;;;;;7.87;5.77;;;;;;;10.19;50.78;97144.69;5023400;28;20545;-71
2022/11/28 08:12:29;;;;;;;10.50;6.40;;;;;;;10.21;50.59;97132.25;5020759;28;20187;-70
2022/11/28 08:14:54;;;;;;;6.53;4.80;;;;;;;10.21;50.24;97144.53;5025805;28;20442;-71
2022/11/28 08:17:20;;;;;;;6.73;5.00;;;;;;;10.14;49.53;97141.69;5030742;28;20275;-70
2022/11/28 08:19:46;;;;;;;9.63;5.50;;;;;;;10.18;49.52;97145.66;5030597;28;20184;-70
2022/11/28 08:22:11;;;;;;;14.70;5.70;;;;;;;10.26;49.79;97145.72;5021763;28;20873;-70
2022/11/28 08:24:37;;;;;;;7.10;5.13;;;;;;;10.28;49.58;97154.25;5025537;28;20278;-70
2022/11/28 08:27:02;;;;;;;10.40;5.73;;;;;;;10.30;49.99;97152.31;5012111;28;20176;-69
2022/11/28 08:29:28;;;;;;;11.70;5.60;;;;;;;10.30;49.77;97147.06;5027079;28;20176;-70
2022/11/28 08:31:53;;;;;;;7.83;5.20;;;;;;;10.28;50.07;97149.03;5026245;28;20585;-72
2022/11/28 08:34:20;;;;;;;6.70;4.90;;;;;;;10.33;50.00;97150.38;5023479;28;20714;-70
2022/11/28 08:36:47;;;;;;;11.40;6.20;;;;;;;10.32;49.89;97146.09;5026998;28;20171;-70
2022/11/28 08:39:13;;;;;;;8.93;5.80;;;;;;;10.40;50.00;97140.94;5008405;28;20462;-69
2022/11/28 08:41:38;;;;;;;10.10;5.20;;;;;;;10.41;49.68;97138.16;5030495;28;20415;-72
2022/11/28 08:44:04;;;;;;;20.53;5.43;;;;;;;10.44;49.51;97137.06;5032070;28;20234;-72
2022/11/28 08:46:29;;;;;;;17.67;5.70;;;;;;;10.51;49.42;97143.31;5007874;28;20206;-70
2022/11/28 08:48:54;;;;;;;10.90;5.80;;;;;;;10.57;49.50;97134.84;5033129;28;20184;-72
2022/11/28 08:51:25;;;;;;;7.93;5.70;;;;;;;10.62;49.67;97123.06;5023961;28;20265;-70
2022/11/28 08:53:50;;;;;;;11.23;6.40;;;;;;;10.67;50.11;97131.31;5026487;28;20665;-69
2022/11/28 08:56:16;;;;;;;12.43;6.50;;;;;;;10.71;49.73;97122.97;5023674;28;20423;-70
2022/11/28 08:58:42;;;;;;;9.77;6.23;;;;;;;10.75;49.74;97128.72;5027484;28;20177;-71
2022/11/28 09:01:15;;;;;;;12.67;6.50;;;;;;;10.79;49.94;97121.34;5026720;28;20330;-70
2022/11/28 09:03:40;;;;;;;10.70;6.40;;;;;;;10.85;49.96;97118.94;5035386;28;20204;-71
2022/11/28 09:06:06;;;;;;;8.67;5.90;;;;;;;10.91;50.08;97113.09;5031644;28;20415;-71
2022/11/28 09:08:31;;;;;;;10.97;5.67;;;;;;;10.96;50.32;97111.78;5037983;28;20179;-71
2022/11/28 09:10:57;;;;;;;10.70;5.93;;;;;;;10.95;50.57;97112.78;5027736;28;20200;-71
2022/11/28 09:13:22;;;;;;;13.27;6.33;;;;;;;10.92;50.33;97108.66;5025510;28;20219;-71
2022/11/28 09:15:48;;;;;;;11.80;6.00;;;;;;;11.00;50.58;97113.09;5028843;28;20194;-71
2022/11/28 09:18:14;;;;;;;18.83;7.20;;;;;;;11.03;50.27;97112.81;5032555;28;20620;-69
2022/11/28 09:20:40;;;;;;;10.70;6.30;;;;;;;11.10;50.58;97120.88;5016238;28;20180;-70
2022/11/28 09:23:07;;;;;;;9.87;7.30;;;;;;;11.14;50.59;97125.63;5028898;28;20203;-70
2022/11/28 09:25:36;;;;;;;9.67;6.33;;;;;;;11.18;50.64;97132.22;5030843;28;20418;-70
2022/11/28 09:28:02;;;;;;;11.47;6.30;;;;;;;11.24;50.48;97136.00;5029595;28;20419;-70
2022/11/28 09:30:28;;;;;;;10.67;6.97;;;;;;;11.28;50.40;97139.94;5027735;28;20454;-70
2022/11/28 09:32:53;;;;;;;11.27;7.40;;;;;;;11.33;50.22;97144.75;5032835;28;20274;-71
2022/11/28 09:35:19;;;;;;;12.43;6.97;;;;;;;11.37;50.15;97136.38;4994116;28;20279;-70
2022/11/28 09:37:44;;;;;;;11.63;6.73;;;;;;;11.41;50.35;97144.75;5013121;28;20226;-70
2022/11/28 09:40:26;;;;;;;7.23;6.17;;;;;;;11.41;51.03;97134.25;5022025;28;20231;-71
2022/11/28 09:42:52;;;;;;;12.10;5.53;;;;;;;11.38;51.29;97126.69;5024908;28;20183;-71
2022/11/28 09:45:20;;;;;;;17.20;6.70;;;;;;;11.36;51.17;97131.28;5031391;28;20478;-70
2022/11/28 09:47:50;;;;;;;66.97;9.80;;;;;;;11.36;51.19;97128.66;5026633;28;20176;-69
2022/11/28 09:50:24;;;;;;;33.37;7.77;;;;;;;11.32;51.34;97119.47;5007753;28;20791;-68
2022/11/28 09:53:21;;;;;;;14.37;6.37;;;;;;;11.29;51.28;97109.28;5025564;28;20421;-70
2022/11/28 09:55:46;;;;;;;15.43;6.40;;;;;;;11.34;51.10;97114.91;5029635;28;20422;-69
2022/11/28 09:58:23;;;;;;;16.60;6.30;;;;;;;11.31;50.94;97128.31;5030142;28;20426;-70
2022/11/28 10:00:57;;;;;;;11.13;6.20;;;;;;;11.24;51.02;97133.38;5037474;28;20264;-71
2022/11/28 10:03:35;;;;;;;9.83;6.03;;;;;;;11.21;50.85;97133.69;5028902;28;20481;-71
2022/11/28 10:06:06;;;;;;;9.23;5.67;;;;;;;11.22;50.97;97137.97;5024415;28;20425;-70
2022/11/28 10:08:48;;;;;;;12.20;6.30;;;;;;;11.30;50.61;97131.94;5033838;28;20423;-69
2022/11/28 10:12:11;;;;;;;10.47;5.53;;;;;;;11.34;50.49;97135.88;5007966;28;20511;-71
2022/11/28 10:14:55;;;;;;;7.27;5.77;;;;;;;11.40;49.87;97143.09;5006425;28;20448;-70
2022/11/28 10:17:28;;;;;;;9.60;5.70;;;;;;;11.46;50.07;97141.66;5002779;28;20423;-70
2022/11/28 10:20:07;;;;;;;12.03;6.03;;;;;;;11.40;50.02;97132.63;5014916;28;20521;-70
2022/11/28 10:22:39;;;;;;;11.00;5.50;;;;;;;11.44;50.43;97140.97;5025871;28;20446;-69
2022/11/28 10:25:16;;;;;;;7.67;5.00;;;;;;;11.40;50.32;97130.00;5033264;28;20537;-70
2022/11/28 10:27:41;;;;;;;10.50;4.70;;;;;;;11.39;49.77;97127.53;5032524;28;20422;-70
2022/11/28 10:30:14;;;;;;;7.20;4.80;;;;;;;11.48;50.11;97135.25;5023252;28;20507;-72
2022/11/28 10:32:43;;;;;;;8.27;5.53;;;;;;;11.53;50.13;97122.47;5013646;28;20406;-71
2022/11/28 10:35:34;;;;;;;10.10;5.23;;;;;;;11.55;50.21;97119.69;5014484;28;20781;-70
2022/11/28 10:38:00;;;;;;;10.00;5.60;;;;;;;11.61;50.38;97126.09;5021956;28;20423;-70
2022/11/28 10:40:43;;;;;;;8.37;5.77;;;;;;;11.64;50.79;97123.16;5032827;28;20418;-70
2022/11/28 10:43:23;;;;;;;11.47;5.53;;;;;;;11.73;50.10;97132.69;5029554;28;20214;-69
2022/11/28 10:45:56;;;;;;;8.40;5.73;;;;;;;11.75;49.98;97130.72;5033326;28;20419;-70
2022/11/28 10:48:28;;;;;;;11.27;6.00;;;;;;;11.70;50.13;97138.28;5031827;28;20788;-70
2022/11/28 10:51:02;;;;;;;6.60;5.57;;;;;;;11.66;49.72;97126.44;5032819;28;20450;-70
2022/11/28 10:53:43;;;;;;;7.87;5.67;;;;;;;11.69;49.77;97126.13;5033181;28;20990;-70
2022/11/28 10:56:30;;;;;;;13.57;6.87;;;;;;;11.70;50.07;97126.94;5028478;28;20430;-71
2022/11/28 10:59:17;;;;;;;8.97;6.00;;;;;;;11.70;50.02;97127.78;5030946;28;20422;-69
2022/11/28 11:01:43;;;;;;;11.37;6.57;;;;;;;11.66;50.08;97126.44;5032487;28;20410;-69
2022/11/28 11:04:17;;;;;;;11.33;6.40;;;;;;;11.67;50.76;97126.28;5032017;28;20486;-70
2022/11/28 11:06:42;;;;;;;21.10;7.20;;;;;;;11.70;50.75;97126.94;5026722;28;20193;-69
2022/11/28 11:09:10;;;;;;;14.63;8.10;;;;;;;11.66;50.37;97124.63;5032664;28;20423;-70
2022/11/28 11:11:41;;;;;;;19.53;9.60;;;;;;;11.64;50.61;97123.16;5032216;28;20214;-70
2022/11/28 11:14:08;;;;;;;15.93;9.50;;;;;;;11.65;50.82;97122.19;5030315;28;20446;-70
2022/11/28 11:16:54;;;;;;;13.37;8.93;;;;;;;11.62;51.07;97130.38;5030567;28;20569;-71
2022/11/28 11:19:28;;;;;;;19.47;8.40;;;;;;;11.55;51.15;97124.94;5020194;28;20435;-71
2022/11/28 11:22:27;;;;;;;12.13;8.57;;;;;;;11.47;51.10;97114.44;5031110;28;20426;-70
2022/11/28 11:25:14;;;;;;;15.77;8.60;;;;;;;11.46;51.74;97110.16;5024922;28;20237;-71
2022/11/28 11:27:50;;;;;;;17.77;8.63;;;;;;;11.51;52.18;97115.75;5022471;28;20851;-70
2022/11/28 11:30:17;;;;;;;14.70;9.03;;;;;;;11.57;52.19;97111.66;5021445;28;20835;-69
2022/11/28 11:32:45;;;;;;;15.83;9.07;;;;;;;11.51;52.83;97106.06;5016335;28;20470;-70
2022/11/28 11:35:17;;;;;;;10.83;8.50;;;;;;;11.54;53.07;97112.78;5014151;28;20446;-70
2022/11/28 11:37:42;;;;;;;16.50;9.27;;;;;;;11.56;53.31;97110.03;5015858;28;20423;-69
2022/11/28 11:40:28;;;;;;;13.40;8.03;;;;;;;11.58;53.07;97108.06;5015399;28;20490;-70
2022/11/28 11:42:56;;;;;;;17.73;9.33;;;;;;;11.52;53.23;97106.91;5014236;28;20529;-69
2022/11/28 11:45:24;;;;;;;11.90;9.17;;;;;;;11.56;53.55;97104.78;5007875;28;20558;-70
2022/11/28 11:47:49;;;;;;;24.37;10.00;;;;;;;11.59;53.47;97105.25;5017027;28;20427;-72